N66HR EDDM-EDSB
Flight info
| Callsign | N66HR |
|---|---|
| Flight time | 0h 38m |
| Altitude | 10000 |
| Route | RIDAR6S/26L RIDAR L173 LBU Z729 KRH KRH1L EDSB/21 |
| Aircraft | SF50/L-V/N |
Departure
| Time | 2026-05-07 19:34 |
|---|---|
| Airport | Munich Airport (EDDM) |
Arrival
| Time | 2026-05-07 20:12 |
|---|---|
| Airport | Karlsruhe Baden-Baden Airport (EDSB) |
| Time | Latitude | Longitude | Altitude | Speed | Heading |
|---|---|---|---|---|---|
| 2026-05-07 19:13 | 48.35937 | 11.80275 | 1453 ft | 0 kts | 353° |
| 2026-05-07 19:23 | 48.35944 | 11.80276 | 1452 ft | 2 kts | 60° |
| 2026-05-07 19:23 | 48.35909 | 11.80290 | 1453 ft | 5 kts | 188° |
| 2026-05-07 19:24 | 48.35874 | 11.80251 | 1454 ft | 7 kts | 263° |
| 2026-05-07 19:24 | 48.35864 | 11.80131 | 1454 ft | 16 kts | 261° |
| 2026-05-07 19:24 | 48.35852 | 11.79985 | 1454 ft | 13 kts | 262° |
| 2026-05-07 19:24 | 48.35842 | 11.79860 | 1457 ft | 9 kts | 267° |
| 2026-05-07 19:25 | 48.35836 | 11.79775 | 1458 ft | 5 kts | 261° |
| 2026-05-07 19:25 | 48.35836 | 11.79774 | 1458 ft | 0 kts | 261° |
| 2026-05-07 19:26 | 48.35835 | 11.79763 | 1458 ft | 5 kts | 261° |
| 2026-05-07 19:26 | 48.35826 | 11.79645 | 1458 ft | 14 kts | 265° |
| 2026-05-07 19:27 | 48.35815 | 11.79538 | 1460 ft | 0 kts | 181° |
| 2026-05-07 19:27 | 48.35720 | 11.79544 | 1460 ft | 16 kts | 176° |
| 2026-05-07 19:27 | 48.35581 | 11.79566 | 1460 ft | 22 kts | 173° |
| 2026-05-07 19:27 | 48.35401 | 11.79600 | 1459 ft | 24 kts | 171° |
| 2026-05-07 19:28 | 48.35240 | 11.79623 | 1458 ft | 21 kts | 173° |
| 2026-05-07 19:28 | 48.35106 | 11.79650 | 1459 ft | 17 kts | 171° |
| 2026-05-07 19:28 | 48.35003 | 11.79666 | 1461 ft | 12 kts | 173° |
| 2026-05-07 19:28 | 48.34924 | 11.79681 | 1461 ft | 9 kts | 172° |
| 2026-05-07 19:29 | 48.34921 | 11.79682 | 1461 ft | 0 kts | 172° |
| 2026-05-07 19:29 | 48.34878 | 11.79691 | 1461 ft | 14 kts | 173° |
| 2026-05-07 19:29 | 48.34745 | 11.79714 | 1461 ft | 18 kts | 176° |
| 2026-05-07 19:30 | 48.34665 | 11.79626 | 1462 ft | 16 kts | 232° |
| 2026-05-07 19:30 | 48.34575 | 11.79447 | 1464 ft | 21 kts | 232° |
| 2026-05-07 19:30 | 48.34510 | 11.79315 | 1468 ft | 1 kts | 232° |
| 2026-05-07 19:32 | 48.34470 | 11.79231 | 1468 ft | 14 kts | 236° |
| 2026-05-07 19:33 | 48.34400 | 11.79080 | 1468 ft | 17 kts | 241° |
| 2026-05-07 19:33 | 48.34363 | 11.78914 | 1471 ft | 20 kts | 264° |
| 2026-05-07 19:33 | 48.34315 | 11.78355 | 1471 ft | 86 kts | 264° |
| 2026-05-07 19:33 | 48.34246 | 11.77344 | 1756 ft | 100 kts | 265° |
| 2026-05-07 19:34 | 48.34170 | 11.76268 | 2151 ft | 110 kts | 265° |
| 2026-05-07 19:34 | 48.34076 | 11.75069 | 2518 ft | 128 kts | 264° |
| 2026-05-07 19:34 | 48.33973 | 11.73713 | 3050 ft | 136 kts | 266° |
| 2026-05-07 19:34 | 48.33871 | 11.72264 | 3574 ft | 146 kts | 266° |
| 2026-05-07 19:35 | 48.33759 | 11.70686 | 4100 ft | 159 kts | 265° |
| 2026-05-07 19:35 | 48.33635 | 11.68987 | 4621 ft | 173 kts | 265° |
| 2026-05-07 19:35 | 48.33499 | 11.67141 | 5144 ft | 185 kts | 264° |
| 2026-05-07 19:35 | 48.33353 | 11.65173 | 5671 ft | 195 kts | 264° |
| 2026-05-07 19:36 | 48.33200 | 11.63118 | 6188 ft | 203 kts | 264° |
| 2026-05-07 19:36 | 48.33058 | 11.60992 | 6702 ft | 209 kts | 263° |
| 2026-05-07 19:36 | 48.32885 | 11.58779 | 7000 ft | 224 kts | 264° |
| 2026-05-07 19:36 | 48.32700 | 11.56330 | 7047 ft | 244 kts | 264° |
| 2026-05-07 19:37 | 48.32507 | 11.53730 | 7062 ft | 260 kts | 264° |
| 2026-05-07 19:37 | 48.32310 | 11.51083 | 7564 ft | 252 kts | 264° |
| 2026-05-07 19:37 | 48.32241 | 11.48504 | 8049 ft | 246 kts | 277° |
| 2026-05-07 19:37 | 48.32756 | 11.46102 | 8535 ft | 243 kts | 298° |
| 2026-05-07 19:38 | 48.33558 | 11.43903 | 9047 ft | 238 kts | 298° |
| 2026-05-07 19:38 | 48.34371 | 11.41780 | 9542 ft | 234 kts | 299° |
| 2026-05-07 19:38 | 48.35186 | 11.39701 | 9945 ft | 234 kts | 299° |
| 2026-05-07 19:38 | 48.36040 | 11.37543 | 10028 ft | 247 kts | 300° |
| 2026-05-07 19:39 | 48.36950 | 11.35263 | 10044 ft | 258 kts | 300° |
| 2026-05-07 19:39 | 48.37888 | 11.32924 | 10043 ft | 266 kts | 299° |
| 2026-05-07 19:39 | 48.38848 | 11.30534 | 10045 ft | 269 kts | 299° |
| 2026-05-07 19:39 | 48.39819 | 11.28112 | 10040 ft | 271 kts | 299° |
| 2026-05-07 19:40 | 48.40794 | 11.25682 | 10029 ft | 272 kts | 299° |
| 2026-05-07 19:40 | 48.41761 | 11.23272 | 10046 ft | 272 kts | 299° |
| 2026-05-07 19:40 | 48.42746 | 11.20811 | 10048 ft | 273 kts | 299° |
| 2026-05-07 19:40 | 48.43724 | 11.18368 | 10049 ft | 274 kts | 299° |
| 2026-05-07 19:41 | 48.44701 | 11.15922 | 10049 ft | 275 kts | 299° |
| 2026-05-07 19:41 | 48.45692 | 11.13440 | 10049 ft | 275 kts | 299° |
| 2026-05-07 19:41 | 48.46679 | 11.10967 | 10048 ft | 276 kts | 299° |
| 2026-05-07 19:41 | 48.47670 | 11.08480 | 10049 ft | 275 kts | 299° |
| 2026-05-07 19:42 | 48.48650 | 11.06018 | 10049 ft | 275 kts | 299° |
| 2026-05-07 19:42 | 48.49636 | 11.03536 | 10051 ft | 275 kts | 299° |
| 2026-05-07 19:42 | 48.50612 | 11.01084 | 10052 ft | 275 kts | 300° |
| 2026-05-07 19:42 | 48.51596 | 10.98607 | 10052 ft | 275 kts | 299° |
| 2026-05-07 19:43 | 48.52582 | 10.96123 | 10055 ft | 275 kts | 300° |
| 2026-05-07 19:43 | 48.53565 | 10.93645 | 10055 ft | 275 kts | 299° |
| 2026-05-07 19:43 | 48.54540 | 10.91181 | 10055 ft | 275 kts | 299° |
| 2026-05-07 19:43 | 48.55530 | 10.88680 | 10055 ft | 276 kts | 299° |
| 2026-05-07 19:44 | 48.56504 | 10.86216 | 10056 ft | 276 kts | 299° |
| 2026-05-07 19:44 | 48.57481 | 10.83740 | 10054 ft | 276 kts | 299° |
| 2026-05-07 19:44 | 48.58469 | 10.81234 | 10060 ft | 276 kts | 299° |
| 2026-05-07 19:44 | 48.59685 | 10.79021 | 10070 ft | 276 kts | 312° |
| 2026-05-07 19:45 | 48.60996 | 10.76904 | 10057 ft | 277 kts | 311° |
| 2026-05-07 19:45 | 48.62324 | 10.74778 | 10053 ft | 277 kts | 311° |
| 2026-05-07 19:45 | 48.63650 | 10.72670 | 10061 ft | 277 kts | 312° |
| 2026-05-07 19:45 | 48.64973 | 10.70570 | 10056 ft | 278 kts | 312° |
| 2026-05-07 19:46 | 48.66297 | 10.68466 | 10043 ft | 278 kts | 312° |
| 2026-05-07 19:46 | 48.67641 | 10.66329 | 10053 ft | 278 kts | 312° |
| 2026-05-07 19:46 | 48.68961 | 10.64228 | 10049 ft | 278 kts | 312° |
| 2026-05-07 19:46 | 48.70298 | 10.62100 | 10045 ft | 278 kts | 312° |
| 2026-05-07 19:47 | 48.71616 | 10.59998 | 10043 ft | 278 kts | 312° |
| 2026-05-07 19:47 | 48.72942 | 10.57884 | 10041 ft | 278 kts | 311° |
| 2026-05-07 19:47 | 48.74276 | 10.55752 | 10044 ft | 278 kts | 312° |
| 2026-05-07 19:47 | 48.75594 | 10.53647 | 10039 ft | 278 kts | 312° |
| 2026-05-07 19:48 | 48.76934 | 10.51502 | 10042 ft | 278 kts | 312° |
| 2026-05-07 19:48 | 48.78251 | 10.49395 | 10046 ft | 277 kts | 312° |
| 2026-05-07 19:48 | 48.79584 | 10.47258 | 10043 ft | 278 kts | 312° |
| 2026-05-07 19:48 | 48.80904 | 10.45140 | 10045 ft | 277 kts | 312° |
| 2026-05-07 19:49 | 48.82220 | 10.43021 | 10044 ft | 277 kts | 310° |
| 2026-05-07 19:49 | 48.82935 | 10.40452 | 10491 ft | 264 kts | 279° |
| 2026-05-07 19:49 | 48.83224 | 10.37743 | 10990 ft | 256 kts | 278° |
| 2026-05-07 19:49 | 48.83467 | 10.35121 | 11478 ft | 250 kts | 278° |
| 2026-05-07 19:50 | 48.83671 | 10.32554 | 11968 ft | 244 kts | 273° |
| 2026-05-07 19:50 | 48.83563 | 10.30018 | 12440 ft | 240 kts | 277° |
| 2026-05-07 19:50 | 48.83698 | 10.27530 | 12964 ft | 235 kts | 275° |
| 2026-05-07 19:50 | 48.83817 | 10.25094 | 13458 ft | 232 kts | 274° |
| 2026-05-07 19:51 | 48.83933 | 10.22689 | 13953 ft | 230 kts | 274° |
| 2026-05-07 19:51 | 48.84051 | 10.20277 | 14457 ft | 227 kts | 274° |
| 2026-05-07 19:51 | 48.84168 | 10.17942 | 14949 ft | 224 kts | 274° |
| 2026-05-07 19:51 | 48.84288 | 10.15601 | 15449 ft | 221 kts | 274° |
| 2026-05-07 19:52 | 48.84408 | 10.13299 | 15946 ft | 219 kts | 274° |
| 2026-05-07 19:52 | 48.84527 | 10.11028 | 16442 ft | 216 kts | 274° |
| 2026-05-07 19:52 | 48.84644 | 10.08798 | 16915 ft | 214 kts | 274° |
| 2026-05-07 19:52 | 48.84766 | 10.06465 | 17032 ft | 228 kts | 274° |
| 2026-05-07 19:53 | 48.84894 | 10.03999 | 17053 ft | 243 kts | 274° |
| 2026-05-07 19:53 | 48.85026 | 10.01406 | 17054 ft | 255 kts | 274° |
| 2026-05-07 19:53 | 48.85164 | 9.98677 | 17052 ft | 264 kts | 274° |
| 2026-05-07 19:53 | 48.85306 | 9.95856 | 17048 ft | 271 kts | 274° |
| 2026-05-07 19:54 | 48.85454 | 9.92980 | 17048 ft | 276 kts | 274° |
| 2026-05-07 19:54 | 48.85604 | 9.90044 | 17048 ft | 280 kts | 274° |
| 2026-05-07 19:54 | 48.85756 | 9.87088 | 17046 ft | 283 kts | 274° |
| 2026-05-07 19:54 | 48.86028 | 9.84135 | 17049 ft | 285 kts | 278° |
| 2026-05-07 19:55 | 48.86336 | 9.81156 | 17050 ft | 286 kts | 278° |
| 2026-05-07 19:55 | 48.86650 | 9.78190 | 17051 ft | 288 kts | 279° |
| 2026-05-07 19:55 | 48.86971 | 9.75185 | 17050 ft | 288 kts | 279° |
| 2026-05-07 19:55 | 48.87288 | 9.72211 | 17052 ft | 289 kts | 279° |
| 2026-05-07 19:56 | 48.87609 | 9.69193 | 17050 ft | 289 kts | 279° |
| 2026-05-07 19:56 | 48.87929 | 9.66182 | 17052 ft | 290 kts | 279° |
| 2026-05-07 19:56 | 48.88250 | 9.63159 | 17055 ft | 290 kts | 279° |
| 2026-05-07 19:56 | 48.88569 | 9.60136 | 17060 ft | 290 kts | 279° |
| 2026-05-07 19:57 | 48.88888 | 9.57118 | 17061 ft | 290 kts | 279° |
| 2026-05-07 19:57 | 48.89208 | 9.54079 | 17062 ft | 291 kts | 279° |
| 2026-05-07 19:57 | 48.89525 | 9.51065 | 17061 ft | 291 kts | 279° |
| 2026-05-07 19:57 | 48.89844 | 9.48014 | 17063 ft | 291 kts | 278° |
| 2026-05-07 19:58 | 48.90157 | 9.45015 | 17065 ft | 291 kts | 278° |
| 2026-05-07 19:58 | 48.90474 | 9.41968 | 17059 ft | 291 kts | 278° |
| 2026-05-07 19:58 | 48.90788 | 9.38946 | 17061 ft | 291 kts | 279° |
| 2026-05-07 19:58 | 48.91104 | 9.35896 | 17061 ft | 291 kts | 279° |
| 2026-05-07 19:59 | 48.91344 | 9.32850 | 17057 ft | 291 kts | 271° |
| 2026-05-07 19:59 | 48.91713 | 9.29832 | 17079 ft | 291 kts | 281° |
| 2026-05-07 19:59 | 48.92068 | 9.26810 | 17061 ft | 292 kts | 278° |
| 2026-05-07 19:59 | 48.92403 | 9.23790 | 17068 ft | 291 kts | 278° |
| 2026-05-07 20:00 | 48.92736 | 9.20756 | 17065 ft | 292 kts | 278° |
| 2026-05-07 20:00 | 48.93065 | 9.17725 | 17060 ft | 292 kts | 278° |
| 2026-05-07 20:00 | 48.93393 | 9.14687 | 17056 ft | 292 kts | 278° |
| 2026-05-07 20:00 | 48.93722 | 9.11611 | 17060 ft | 292 kts | 278° |
| 2026-05-07 20:01 | 48.94047 | 9.08580 | 17056 ft | 292 kts | 278° |
| 2026-05-07 20:01 | 48.94370 | 9.05548 | 17048 ft | 293 kts | 278° |
| 2026-05-07 20:01 | 48.94698 | 9.02463 | 16646 ft | 292 kts | 278° |
| 2026-05-07 20:01 | 48.95016 | 8.99468 | 16165 ft | 291 kts | 278° |
| 2026-05-07 20:02 | 48.95336 | 8.96436 | 15661 ft | 291 kts | 278° |
| 2026-05-07 20:02 | 48.95658 | 8.93391 | 15153 ft | 291 kts | 278° |
| 2026-05-07 20:02 | 48.95977 | 8.90379 | 14653 ft | 291 kts | 278° |
| 2026-05-07 20:02 | 48.96296 | 8.87344 | 14153 ft | 291 kts | 278° |
| 2026-05-07 20:03 | 48.96614 | 8.84305 | 13654 ft | 291 kts | 278° |
| 2026-05-07 20:03 | 48.96927 | 8.81315 | 13164 ft | 291 kts | 278° |
| 2026-05-07 20:03 | 48.97242 | 8.78298 | 12669 ft | 290 kts | 278° |
| 2026-05-07 20:03 | 48.97557 | 8.75261 | 12167 ft | 289 kts | 278° |
| 2026-05-07 20:04 | 48.97868 | 8.72260 | 11672 ft | 288 kts | 278° |
| 2026-05-07 20:04 | 48.98177 | 8.69284 | 11175 ft | 287 kts | 278° |
| 2026-05-07 20:04 | 48.98489 | 8.66267 | 10670 ft | 287 kts | 278° |
| 2026-05-07 20:04 | 48.98795 | 8.63289 | 10170 ft | 286 kts | 278° |
| 2026-05-07 20:05 | 48.99098 | 8.60330 | 9669 ft | 282 kts | 278° |
| 2026-05-07 20:05 | 48.99158 | 8.57397 | 9144 ft | 278 kts | 259° |
| 2026-05-07 20:05 | 48.98786 | 8.54553 | 8654 ft | 274 kts | 258° |
| 2026-05-07 20:05 | 48.98409 | 8.51758 | 8151 ft | 272 kts | 258° |
| 2026-05-07 20:06 | 48.98037 | 8.48979 | 7647 ft | 270 kts | 259° |
| 2026-05-07 20:06 | 48.97664 | 8.46179 | 7128 ft | 268 kts | 259° |
| 2026-05-07 20:06 | 48.97293 | 8.43412 | 6628 ft | 267 kts | 259° |
| 2026-05-07 20:06 | 48.96924 | 8.40656 | 6124 ft | 267 kts | 259° |
| 2026-05-07 20:07 | 48.96556 | 8.37905 | 5613 ft | 267 kts | 259° |
| 2026-05-07 20:07 | 48.96189 | 8.35178 | 5111 ft | 263 kts | 259° |
| 2026-05-07 20:07 | 48.95825 | 8.32474 | 4587 ft | 258 kts | 259° |
| 2026-05-07 20:07 | 48.95469 | 8.29825 | 4109 ft | 254 kts | 259° |
| 2026-05-07 20:08 | 48.95121 | 8.27245 | 4014 ft | 253 kts | 259° |
| 2026-05-07 20:08 | 48.94747 | 8.24613 | 3997 ft | 255 kts | 257° |
| 2026-05-07 20:08 | 48.94067 | 8.22098 | 3807 ft | 261 kts | 231° |
| 2026-05-07 20:08 | 48.92594 | 8.20619 | 3494 ft | 257 kts | 194° |
| 2026-05-07 20:09 | 48.90894 | 8.19971 | 3170 ft | 257 kts | 209° |
| 2026-05-07 20:09 | 48.89324 | 8.18671 | 2839 ft | 260 kts | 209° |
| 2026-05-07 20:09 | 48.87770 | 8.17264 | 2494 ft | 257 kts | 211° |
| 2026-05-07 20:10 | 48.84847 | 8.14526 | 1802 ft | 227 kts | 211° |
| 2026-05-07 20:10 | 48.83566 | 8.13326 | 1490 ft | 196 kts | 211° |
| 2026-05-07 20:10 | 48.82549 | 8.12368 | 1350 ft | 147 kts | 210° |
| 2026-05-07 20:10 | 48.81724 | 8.11597 | 1068 ft | 130 kts | 210° |
| 2026-05-07 20:11 | 48.81005 | 8.10924 | 908 ft | 114 kts | 211° |
| 2026-05-07 20:11 | 48.80360 | 8.10318 | 765 ft | 104 kts | 211° |
| 2026-05-07 20:11 | 48.79800 | 8.09757 | 637 ft | 89 kts | 197° |
| 2026-05-07 20:11 | 48.79249 | 8.09290 | 497 ft | 93 kts | 214° |
| 2026-05-07 20:12 | 48.78715 | 8.08771 | 401 ft | 81 kts | 212° |
| 2026-05-07 20:12 | 48.78328 | 8.08401 | 398 ft | 36 kts | 212° |
| 2026-05-07 20:12 | 48.78122 | 8.08213 | 398 ft | 32 kts | 206° |
| 2026-05-07 20:12 | 48.77892 | 8.08044 | 397 ft | 19 kts | 193° |
| 2026-05-07 20:13 | 48.77822 | 8.08179 | 395 ft | 18 kts | 124° |
| 2026-05-07 20:13 | 48.77769 | 8.08315 | 397 ft | 11 kts | 117° |
| 2026-05-07 20:13 | 48.77703 | 8.08469 | 398 ft | 22 kts | 118° |
| 2026-05-07 20:13 | 48.77678 | 8.08572 | 399 ft | 0 kts | 123° |